createdAt,value
2022-10-22T00:00:55.864Z,99.90
2022-10-22T00:03:22.500Z,99.90
2022-10-22T00:05:49.033Z,99.90
2022-10-22T00:08:15.531Z,99.90
2022-10-22T00:10:42.286Z,99.90
2022-10-22T00:13:08.836Z,99.90
2022-10-22T00:15:35.327Z,99.90
2022-10-22T00:18:01.896Z,99.90
2022-10-22T00:20:28.436Z,99.90
2022-10-22T00:22:54.927Z,99.90
2022-10-22T00:25:21.419Z,99.90
2022-10-22T00:27:47.949Z,99.90
2022-10-22T00:30:14.429Z,99.90
2022-10-22T00:32:41.124Z,99.90
2022-10-22T00:35:07.946Z,99.90
2022-10-22T00:37:34.718Z,99.90
2022-10-22T00:40:01.231Z,99.90
2022-10-22T00:42:30.192Z,99.90
2022-10-22T00:45:02.964Z,99.90
2022-10-22T00:47:37.100Z,99.90
2022-10-22T00:50:05.727Z,99.90
2022-10-22T00:52:32.463Z,99.90
2022-10-22T00:54:59.862Z,99.90
2022-10-22T00:57:27.408Z,99.90
2022-10-22T00:59:54.185Z,99.90
2022-10-22T01:02:21.300Z,99.90
2022-10-22T01:04:47.848Z,99.90
2022-10-22T01:07:18.821Z,99.90
2022-10-22T01:10:08.671Z,99.90
2022-10-22T01:12:35.258Z,99.90
2022-10-22T01:15:20.410Z,99.90
2022-10-22T01:17:46.903Z,99.90
2022-10-22T01:20:25.834Z,99.90
2022-10-22T01:23:07.646Z,99.90
2022-10-22T01:25:35.475Z,99.90
2022-10-22T01:28:16.242Z,99.90
2022-10-22T01:30:43.324Z,99.90
2022-10-22T01:33:12.332Z,99.90
2022-10-22T01:35:40.042Z,99.90
2022-10-22T01:38:08.697Z,99.90
2022-10-22T01:40:35.781Z,99.90
2022-10-22T01:43:04.121Z,99.90
2022-10-22T01:45:33.204Z,99.90
2022-10-22T01:48:08.928Z,99.90
2022-10-22T01:50:45.760Z,99.90
2022-10-22T01:53:27.093Z,99.90
2022-10-22T01:55:57.927Z,99.90
2022-10-22T01:58:36.369Z,99.90
2022-10-22T02:01:10.215Z,99.90
2022-10-22T02:04:00.161Z,99.90
2022-10-22T02:06:28.737Z,99.90
2022-10-22T02:08:56.051Z,99.90
2022-10-22T02:11:22.603Z,99.90
2022-10-22T02:13:51.186Z,99.90
2022-10-22T02:16:26.960Z,99.90
2022-10-22T02:18:54.387Z,99.90
2022-10-22T02:21:21.611Z,99.90
2022-10-22T02:23:48.340Z,99.90
2022-10-22T02:26:18.956Z,99.90
2022-10-22T02:28:49.831Z,99.90
2022-10-22T02:31:21.737Z,99.90
2022-10-22T02:33:50.766Z,99.90
2022-10-22T02:36:17.803Z,99.90
2022-10-22T02:38:45.765Z,99.90
2022-10-22T02:41:12.278Z,99.90
2022-10-22T02:43:40.413Z,99.90
2022-10-22T02:46:07.051Z,99.90
2022-10-22T02:48:33.568Z,99.90
2022-10-22T02:51:00.114Z,99.90
2022-10-22T02:53:26.594Z,99.90
2022-10-22T02:55:53.108Z,99.90
2022-10-22T02:58:19.567Z,99.90
2022-10-22T03:00:46.117Z,99.90
2022-10-22T03:03:12.637Z,99.90
2022-10-22T03:05:39.175Z,99.90
2022-10-22T03:08:05.736Z,99.90
2022-10-22T03:10:32.274Z,99.90
2022-10-22T03:12:58.792Z,99.90
2022-10-22T03:15:25.374Z,99.90
2022-10-22T03:17:51.899Z,99.90
2022-10-22T03:20:18.417Z,99.90
2022-10-22T03:22:45.102Z,99.90
2022-10-22T03:25:13.849Z,99.90
2022-10-22T03:27:41.012Z,99.90
2022-10-22T03:30:08.197Z,99.90
2022-10-22T03:32:34.672Z,99.90
2022-10-22T03:35:01.219Z,99.90
2022-10-22T03:37:27.799Z,99.90
2022-10-22T03:39:54.583Z,99.90
2022-10-22T03:42:21.725Z,99.90
2022-10-22T03:44:48.258Z,99.90
2022-10-22T03:47:14.767Z,99.90
2022-10-22T03:49:41.279Z,99.90
2022-10-22T03:52:08.837Z,99.90
2022-10-22T03:54:35.960Z,99.90
2022-10-22T03:57:03.171Z,99.90
2022-10-22T03:59:33.932Z,99.90
2022-10-22T04:02:00.467Z,99.90
2022-10-22T04:04:26.969Z,99.90
2022-10-22T04:06:53.489Z,99.90
2022-10-22T04:09:19.969Z,99.90
2022-10-22T04:11:46.470Z,99.90
2022-10-22T04:14:12.934Z,99.90
2022-10-22T04:16:40.208Z,99.90
2022-10-22T04:19:07.328Z,99.90
2022-10-22T04:21:34.180Z,99.90
2022-10-22T04:24:01.240Z,99.90
2022-10-22T04:26:27.723Z,99.90
2022-10-22T04:28:54.207Z,99.90
2022-10-22T04:31:22.693Z,99.90
2022-10-22T04:33:52.394Z,99.90
2022-10-22T04:36:18.851Z,99.90
2022-10-22T04:38:46.374Z,99.90
2022-10-22T04:41:12.893Z,99.90
2022-10-22T04:43:39.570Z,99.90
2022-10-22T04:46:06.586Z,99.90
2022-10-22T04:48:33.027Z,99.90
2022-10-22T04:51:00.633Z,99.90
2022-10-22T04:53:27.675Z,99.90
2022-10-22T04:55:54.245Z,99.90
2022-10-22T04:58:20.906Z,99.90
2022-10-22T05:00:47.498Z,99.90
2022-10-22T05:03:14.014Z,99.90
2022-10-22T05:05:40.538Z,99.90
2022-10-22T05:08:07.049Z,99.90
2022-10-22T05:10:33.558Z,99.90
2022-10-22T05:13:00.093Z,99.90
2022-10-22T05:15:26.600Z,99.90
2022-10-22T05:17:53.143Z,99.90
2022-10-22T05:20:19.664Z,99.90
2022-10-22T05:22:46.160Z,99.90
2022-10-22T05:25:12.688Z,99.90
2022-10-22T05:27:39.384Z,99.90
2022-10-22T05:30:06.306Z,99.90
2022-10-22T05:32:34.617Z,99.90
2022-10-22T05:35:01.109Z,99.90
2022-10-22T05:37:27.655Z,99.90
2022-10-22T05:40:01.799Z,99.90
2022-10-22T05:42:39.345Z,99.90
2022-10-22T05:45:06.221Z,99.90
2022-10-22T05:47:32.672Z,99.90
2022-10-22T05:49:59.168Z,99.90
2022-10-22T05:52:25.721Z,99.90
2022-10-22T05:54:52.229Z,99.90
2022-10-22T05:57:18.741Z,99.90
2022-10-22T05:59:45.804Z,99.90
2022-10-22T06:02:12.416Z,99.90
2022-10-22T06:04:38.966Z,99.90
2022-10-22T06:07:05.495Z,99.90
2022-10-22T06:09:35.139Z,99.90
2022-10-22T06:12:01.916Z,99.90
2022-10-22T06:14:28.682Z,99.90
2022-10-22T06:16:55.207Z,99.90
2022-10-22T06:19:22.560Z,99.90
2022-10-22T06:21:49.122Z,99.90
2022-10-22T06:24:15.914Z,99.90
2022-10-22T06:26:42.344Z,99.90
2022-10-22T06:29:08.887Z,99.90
2022-10-22T06:31:38.394Z,99.90
2022-10-22T06:34:10.532Z,99.90
2022-10-22T06:36:37.328Z,99.90
2022-10-22T06:39:04.878Z,99.90
2022-10-22T06:41:31.453Z,99.90
2022-10-22T06:43:58.133Z,99.90
2022-10-22T06:46:25.294Z,99.90
2022-10-22T06:49:02.842Z,99.90
2022-10-22T06:51:29.406Z,99.90
2022-10-22T06:53:56.229Z,99.90
2022-10-22T06:56:23.804Z,99.90
2022-10-22T06:58:51.242Z,99.90
2022-10-22T07:01:18.790Z,99.90
2022-10-22T07:03:45.393Z,99.90
2022-10-22T07:06:13.082Z,99.90
2022-10-22T07:08:40.257Z,99.90
2022-10-22T07:11:14.286Z,99.90
2022-10-22T07:13:41.135Z,99.90
2022-10-22T07:16:08.142Z,99.90
2022-10-22T07:18:35.337Z,99.90
2022-10-22T07:21:02.102Z,99.90
2022-10-22T07:23:28.634Z,99.90
2022-10-22T07:28:21.624Z,99.90
2022-10-22T07:30:49.081Z,99.90
2022-10-22T07:33:15.668Z,99.90
2022-10-22T07:35:42.383Z,99.90
2022-10-22T07:38:08.907Z,99.90
2022-10-22T07:40:35.889Z,99.00
2022-10-22T07:43:02.465Z,96.80
2022-10-22T07:45:28.978Z,95.40
2022-10-22T07:47:55.559Z,92.60
2022-10-22T07:50:22.048Z,91.60
2022-10-22T07:52:48.592Z,93.40
2022-10-22T07:55:15.091Z,94.60
2022-10-22T07:57:41.563Z,95.60
2022-10-22T08:00:09.048Z,95.40
2022-10-22T08:02:35.540Z,93.60
2022-10-22T08:05:02.046Z,91.00
2022-10-22T08:07:28.579Z,90.80
2022-10-22T08:09:55.166Z,90.20
2022-10-22T08:12:21.682Z,89.90
2022-10-22T08:14:48.159Z,87.00
2022-10-22T08:17:14.697Z,85.40
2022-10-22T08:19:41.199Z,84.30
2022-10-22T08:22:07.710Z,83.80
2022-10-22T08:24:34.495Z,80.60
2022-10-22T08:27:01.002Z,77.80
2022-10-22T08:29:27.778Z,76.40
2022-10-22T08:31:54.268Z,75.70
2022-10-22T08:34:20.954Z,76.00
2022-10-22T08:36:47.563Z,75.30
2022-10-22T08:39:14.042Z,75.40
2022-10-22T08:41:51.997Z,74.00
2022-10-22T08:44:48.027Z,74.30
2022-10-22T08:47:26.426Z,75.20
2022-10-22T08:49:53.392Z,74.50
2022-10-22T08:52:20.574Z,73.90
2022-10-22T08:55:00.866Z,73.60
2022-10-22T09:00:16.732Z,73.10
2022-10-22T09:03:02.132Z,72.10
2022-10-22T09:05:37.650Z,72.90
2022-10-22T09:08:04.853Z,73.40
2022-10-22T09:10:33.033Z,72.20
2022-10-22T09:12:59.503Z,74.40
2022-10-22T09:15:26.922Z,79.60
2022-10-22T09:17:56.616Z,83.00
2022-10-22T09:20:42.763Z,87.10
2022-10-22T09:23:28.107Z,91.90
2022-10-22T09:25:56.677Z,90.90
2022-10-22T09:28:23.166Z,86.50
2022-10-22T09:30:50.015Z,83.70
2022-10-22T09:33:21.429Z,81.00
2022-10-22T09:36:05.544Z,80.40
2022-10-22T09:38:33.709Z,83.50
2022-10-22T09:41:03.498Z,85.80
2022-10-22T09:43:30.491Z,89.00
2022-10-22T09:45:58.617Z,90.40
2022-10-22T09:48:31.241Z,92.30
2022-10-22T09:51:06.263Z,92.70
2022-10-22T09:53:37.363Z,93.30
2022-10-22T09:56:08.390Z,95.10
2022-10-22T09:58:45.489Z,95.40
2022-10-22T10:01:19.944Z,96.10
2022-10-22T10:03:47.473Z,94.20
2022-10-22T10:06:17.650Z,91.70
2022-10-22T10:08:44.136Z,86.40
2022-10-22T10:11:12.806Z,78.70
2022-10-22T10:13:45.822Z,74.80
2022-10-22T10:16:32.567Z,73.40
2022-10-22T10:19:05.052Z,74.80
2022-10-22T10:21:43.831Z,71.00
2022-10-22T10:24:29.204Z,71.60
2022-10-22T10:27:00.091Z,72.20
2022-10-22T10:29:42.127Z,72.70
2022-10-22T10:32:30.017Z,72.00
2022-10-22T10:35:04.417Z,70.80
2022-10-22T10:37:35.332Z,72.70
2022-10-22T10:40:07.804Z,71.10
2022-10-22T10:42:43.277Z,68.60
2022-10-22T10:45:18.899Z,68.10
2022-10-22T10:47:54.654Z,66.80
2022-10-22T10:50:53.643Z,65.50
2022-10-22T10:53:29.004Z,66.60
2022-10-22T10:56:07.787Z,67.10
2022-10-22T10:58:38.741Z,69.60
2022-10-22T11:01:18.902Z,74.10
2022-10-22T11:03:57.560Z,78.20
2022-10-22T11:06:25.754Z,81.50
2022-10-22T11:09:02.225Z,85.60
2022-10-22T11:11:31.887Z,83.90
2022-10-22T11:14:04.494Z,82.30
2022-10-22T11:16:40.362Z,81.50
2022-10-22T11:19:15.542Z,81.00
2022-10-22T11:21:52.379Z,82.80
2022-10-22T11:24:27.718Z,86.10
2022-10-22T11:27:06.803Z,89.60
2022-10-22T11:29:38.989Z,87.20
2022-10-22T11:32:06.618Z,83.50
2022-10-22T11:34:41.076Z,81.20
2022-10-22T11:37:09.467Z,78.10
2022-10-22T11:39:50.883Z,80.00
2022-10-22T11:42:31.895Z,82.80
2022-10-22T11:45:06.437Z,86.80
2022-10-22T11:47:34.763Z,89.80
2022-10-22T11:50:20.022Z,91.50
2022-10-22T11:52:53.972Z,93.40
2022-10-22T11:55:45.280Z,94.20
2022-10-22T11:58:30.538Z,95.70
2022-10-22T12:01:12.860Z,96.40
2022-10-22T12:03:43.905Z,97.00
2022-10-22T12:06:15.329Z,96.90
2022-10-22T12:08:43.745Z,97.30
2022-10-22T12:11:10.239Z,96.10
2022-10-22T12:13:58.552Z,96.50
2022-10-22T12:16:43.923Z,97.20
2022-10-22T12:19:17.300Z,97.60
2022-10-22T12:21:46.680Z,98.10
2022-10-22T12:24:15.111Z,99.30
2022-10-22T12:26:41.606Z,99.90
2022-10-22T12:29:11.006Z,99.90
2022-10-22T12:31:38.712Z,99.90
2022-10-22T12:34:05.392Z,99.90
2022-10-22T12:36:34.124Z,99.90
2022-10-22T12:39:01.489Z,99.90
2022-10-22T12:41:35.418Z,99.90
2022-10-22T12:44:03.074Z,99.90
2022-10-22T12:46:31.253Z,99.90
2022-10-22T12:49:01.682Z,99.90
2022-10-22T12:51:28.755Z,99.90
2022-10-22T12:53:56.801Z,99.90
2022-10-22T12:56:25.411Z,99.90
2022-10-22T12:59:00.028Z,99.90
2022-10-22T13:01:33.925Z,99.90
2022-10-22T13:04:05.030Z,99.90
2022-10-22T13:06:33.812Z,99.90
2022-10-22T13:09:00.545Z,99.90
2022-10-22T13:11:49.375Z,99.90
2022-10-22T13:14:42.210Z,99.90
2022-10-22T13:17:08.700Z,99.90
2022-10-22T13:19:45.922Z,99.90
2022-10-22T13:22:24.612Z,99.90
2022-10-22T13:24:51.302Z,99.90
2022-10-22T13:27:17.972Z,99.90
2022-10-22T13:29:44.690Z,99.90
2022-10-22T13:32:30.068Z,99.90
2022-10-22T13:34:57.820Z,99.90
2022-10-22T13:37:24.678Z,99.90
2022-10-22T13:39:51.208Z,99.90
2022-10-22T13:42:17.728Z,99.90
2022-10-22T13:44:44.246Z,99.90
2022-10-22T13:47:27.799Z,99.90
2022-10-22T13:52:42.612Z,99.90
2022-10-22T13:55:14.246Z,99.90
2022-10-22T13:57:40.746Z,99.90
2022-10-22T14:00:07.570Z,99.90
2022-10-22T14:02:34.661Z,99.90
2022-10-22T14:05:04.207Z,99.90
2022-10-22T14:07:30.709Z,99.90
2022-10-22T14:09:57.226Z,99.90
2022-10-22T14:12:25.050Z,99.90
2022-10-22T14:14:51.607Z,99.90
2022-10-22T14:17:19.055Z,99.90
2022-10-22T14:19:47.406Z,99.90
2022-10-22T14:22:18.700Z,99.90
2022-10-22T14:24:45.963Z,99.90
2022-10-22T14:27:13.811Z,99.90
2022-10-22T14:29:40.331Z,99.90
2022-10-22T14:32:12.278Z,99.90
2022-10-22T14:34:38.837Z,99.90
2022-10-22T14:37:05.419Z,99.90
2022-10-22T14:39:31.927Z,99.90
2022-10-22T14:41:58.423Z,99.90
2022-10-22T14:44:25.389Z,99.90
2022-10-22T14:46:54.217Z,99.90
2022-10-22T14:49:20.700Z,99.90
2022-10-22T14:51:47.355Z,99.90
2022-10-22T14:54:13.868Z,99.90
2022-10-22T14:56:40.419Z,99.90
2022-10-22T14:59:06.937Z,99.90
2022-10-22T15:01:33.410Z,99.90
2022-10-22T15:03:59.941Z,99.90
2022-10-22T15:06:26.453Z,99.90
2022-10-22T15:08:53.065Z,99.90
2022-10-22T15:11:19.667Z,99.90
2022-10-22T15:13:46.079Z,99.90
2022-10-22T15:16:13.013Z,99.90
2022-10-22T15:18:39.567Z,99.90
2022-10-22T15:21:07.168Z,99.90
2022-10-22T15:23:33.847Z,99.90
2022-10-22T15:26:00.348Z,99.90
2022-10-22T15:28:27.012Z,99.90
2022-10-22T15:30:57.610Z,99.90
2022-10-22T15:33:24.231Z,99.90
2022-10-22T15:35:50.847Z,99.90
2022-10-22T15:38:17.652Z,99.90
2022-10-22T15:40:44.269Z,99.90
2022-10-22T15:43:11.013Z,99.90
2022-10-22T15:45:37.662Z,99.90
2022-10-22T15:48:04.370Z,99.90
2022-10-22T15:50:31.143Z,99.90
2022-10-22T15:52:57.639Z,99.90
2022-10-22T15:55:24.353Z,99.90
2022-10-22T15:57:55.180Z,99.90
2022-10-22T16:00:22.789Z,99.90
2022-10-22T16:02:49.443Z,99.90
2022-10-22T16:05:16.112Z,99.90
2022-10-22T16:07:43.863Z,99.90
2022-10-22T16:10:12.736Z,99.90
2022-10-22T16:12:40.907Z,99.90
2022-10-22T16:15:08.264Z,99.90
2022-10-22T16:17:34.815Z,99.90
2022-10-22T16:20:01.545Z,99.90
2022-10-22T16:22:28.173Z,99.90
2022-10-22T16:24:54.701Z,99.90
2022-10-22T16:27:21.225Z,99.90
2022-10-22T16:29:47.717Z,99.90
2022-10-22T16:32:16.099Z,99.90
2022-10-22T16:34:42.602Z,99.90
2022-10-22T16:37:10.228Z,99.90
2022-10-22T16:39:37.395Z,99.90
2022-10-22T16:42:03.932Z,99.90
2022-10-22T16:44:30.444Z,99.90
2022-10-22T16:46:56.919Z,99.90
2022-10-22T16:49:23.435Z,99.90
2022-10-22T16:51:49.915Z,99.90
2022-10-22T16:54:16.403Z,99.90
2022-10-22T16:56:42.903Z,99.90
2022-10-22T16:59:09.416Z,99.90
2022-10-22T17:01:40.696Z,99.90
2022-10-22T17:04:07.916Z,99.90
2022-10-22T17:06:34.460Z,99.90
2022-10-22T17:09:01.067Z,99.90
2022-10-22T17:11:29.950Z,99.90
2022-10-22T17:13:56.442Z,99.90
2022-10-22T17:16:24.114Z,99.90
2022-10-22T17:18:51.068Z,99.90
2022-10-22T17:21:18.098Z,99.90
2022-10-22T17:23:44.698Z,99.90
2022-10-22T17:26:15.962Z,99.90
2022-10-22T17:28:42.552Z,99.90
2022-10-22T17:31:14.925Z,99.90
2022-10-22T17:33:41.419Z,99.90
2022-10-22T17:36:10.675Z,99.90
2022-10-22T17:38:38.696Z,99.90
2022-10-22T17:41:06.971Z,99.90
2022-10-22T17:43:37.574Z,99.90
2022-10-22T17:46:08.231Z,99.90
2022-10-22T17:48:34.898Z,99.90
2022-10-22T17:51:05.138Z,99.90
2022-10-22T17:53:31.660Z,99.90
2022-10-22T17:55:59.232Z,99.90
2022-10-22T17:58:25.795Z,99.90
2022-10-22T18:00:52.346Z,99.90
2022-10-22T18:03:19.540Z,99.90
2022-10-22T18:05:46.066Z,99.90
2022-10-22T18:08:12.582Z,99.90
2022-10-22T18:10:39.825Z,99.90
2022-10-22T18:13:06.339Z,99.90
2022-10-22T18:15:33.826Z,99.90
2022-10-22T18:18:00.322Z,99.90
2022-10-22T18:20:26.834Z,99.90
2022-10-22T18:22:53.718Z,99.90
2022-10-22T18:25:20.721Z,99.90
2022-10-22T18:27:47.402Z,99.90
2022-10-22T18:30:13.919Z,99.90
2022-10-22T18:32:40.435Z,99.90
2022-10-22T18:35:07.240Z,99.90
2022-10-22T18:37:35.971Z,99.90
2022-10-22T18:40:03.243Z,99.90
2022-10-22T18:42:32.812Z,99.90
2022-10-22T18:45:00.983Z,99.90
2022-10-22T18:47:27.445Z,99.90
2022-10-22T18:49:53.966Z,99.90
2022-10-22T18:52:20.495Z,99.90
2022-10-22T18:54:46.994Z,99.90
2022-10-22T18:57:13.466Z,99.90
2022-10-22T18:59:39.962Z,99.90
2022-10-22T19:02:06.508Z,99.90
2022-10-22T19:04:36.583Z,99.90
2022-10-22T19:07:04.500Z,99.90
2022-10-22T19:09:31.005Z,99.90
2022-10-22T19:11:57.601Z,99.90
2022-10-22T19:14:24.080Z,99.90
2022-10-22T19:16:50.673Z,99.90
2022-10-22T19:19:18.634Z,99.90
2022-10-22T19:21:45.508Z,99.90
2022-10-22T19:24:13.605Z,99.90
2022-10-22T19:26:40.137Z,99.90
2022-10-22T19:29:06.671Z,99.90
2022-10-22T19:31:33.356Z,99.90
2022-10-22T19:34:00.735Z,99.90
2022-10-22T19:36:30.348Z,99.90
2022-10-22T19:38:57.527Z,99.90
2022-10-22T19:41:25.364Z,99.90
2022-10-22T19:43:52.511Z,99.90
2022-10-22T19:46:19.692Z,99.90
2022-10-22T19:51:17.938Z,99.90
2022-10-22T19:53:44.882Z,99.90
2022-10-22T19:56:11.727Z,99.90
2022-10-22T19:58:38.387Z,99.90
2022-10-22T20:01:06.138Z,99.90
2022-10-22T20:03:33.082Z,99.90
2022-10-22T20:05:59.633Z,99.90
2022-10-22T20:08:26.151Z,99.90
2022-10-22T20:10:52.705Z,99.90
2022-10-22T20:13:19.279Z,99.90
2022-10-22T20:15:49.197Z,99.90
2022-10-22T20:18:15.744Z,99.90
2022-10-22T20:20:42.303Z,99.90
2022-10-22T20:23:08.781Z,99.90
2022-10-22T20:25:35.769Z,99.90
2022-10-22T20:28:02.289Z,99.90
2022-10-22T20:30:28.792Z,99.90
2022-10-22T20:32:55.310Z,99.90
2022-10-22T20:35:21.856Z,99.90
2022-10-22T20:37:48.503Z,99.90
2022-10-22T20:40:15.033Z,99.90
2022-10-22T20:42:41.897Z,99.90
2022-10-22T20:45:08.720Z,99.90
2022-10-22T20:47:50.838Z,99.90
2022-10-22T20:50:27.376Z,99.90
2022-10-22T20:52:54.064Z,99.90
2022-10-22T20:55:20.795Z,99.90
2022-10-22T20:57:47.849Z,99.90
2022-10-22T21:00:14.729Z,99.90
2022-10-22T21:02:41.267Z,99.90
2022-10-22T21:05:08.024Z,99.90
2022-10-22T21:07:34.510Z,99.90
2022-10-22T21:10:01.011Z,99.90
2022-10-22T21:12:27.533Z,99.90
2022-10-22T21:14:54.020Z,99.90
2022-10-22T21:17:20.447Z,99.90
2022-10-22T21:19:46.888Z,99.90
2022-10-22T21:22:13.522Z,99.90
2022-10-22T21:24:41.050Z,99.90
2022-10-22T21:27:07.602Z,99.90
2022-10-22T21:29:34.164Z,99.90
2022-10-22T21:32:00.677Z,99.90
2022-10-22T21:34:27.175Z,99.90
2022-10-22T21:36:53.687Z,99.90
2022-10-22T21:39:20.206Z,99.90
2022-10-22T21:41:46.749Z,99.90
2022-10-22T21:44:13.241Z,99.90
2022-10-22T21:46:39.735Z,99.90
2022-10-22T21:49:06.267Z,99.90
2022-10-22T21:51:33.683Z,99.90
2022-10-22T21:54:00.406Z,99.90
2022-10-22T21:56:28.226Z,99.90
2022-10-22T21:58:55.087Z,99.90
2022-10-22T22:01:21.792Z,99.90
2022-10-22T22:03:52.273Z,99.90
2022-10-22T22:06:21.856Z,99.90
2022-10-22T22:08:49.087Z,99.90
2022-10-22T22:11:17.009Z,99.90
2022-10-22T22:13:43.528Z,99.90
2022-10-22T22:16:11.002Z,99.90
2022-10-22T22:18:37.928Z,99.90
2022-10-22T22:21:05.504Z,99.90
2022-10-22T22:23:32.274Z,99.90
2022-10-22T22:26:01.761Z,99.90
2022-10-22T22:28:28.747Z,99.90
2022-10-22T22:30:55.288Z,99.90
2022-10-22T22:33:21.857Z,99.90
2022-10-22T22:35:48.415Z,99.90
2022-10-22T22:38:14.976Z,99.90
2022-10-22T22:40:41.522Z,99.90
2022-10-22T22:43:08.781Z,99.90
2022-10-22T22:45:35.552Z,99.90
2022-10-22T22:48:02.480Z,99.90
2022-10-22T22:50:28.991Z,99.90
2022-10-22T22:52:55.528Z,99.90
2022-10-22T22:55:22.871Z,99.90
2022-10-22T22:57:49.528Z,99.90
2022-10-22T23:00:16.176Z,99.90
2022-10-22T23:02:42.966Z,99.90
2022-10-22T23:05:09.712Z,99.90
2022-10-22T23:07:36.196Z,99.90
2022-10-22T23:10:02.723Z,99.90
2022-10-22T23:12:29.214Z,99.90
2022-10-22T23:14:55.717Z,99.90
2022-10-22T23:17:22.208Z,99.90
2022-10-22T23:19:48.682Z,99.90
2022-10-22T23:22:15.186Z,99.90
2022-10-22T23:24:41.680Z,99.90
2022-10-22T23:27:09.802Z,99.90
2022-10-22T23:29:36.363Z,99.90
2022-10-22T23:32:03.922Z,99.90
2022-10-22T23:34:31.326Z,99.90
2022-10-22T23:36:58.510Z,99.90
2022-10-22T23:39:26.072Z,99.90
2022-10-22T23:41:53.068Z,99.90
2022-10-22T23:44:20.497Z,99.90
2022-10-22T23:46:47.115Z,99.90
2022-10-22T23:49:14.084Z,99.90
2022-10-22T23:51:40.943Z,99.90
2022-10-22T23:54:08.654Z,99.90
2022-10-22T23:56:35.722Z,99.90
2022-10-22T23:59:02.632Z,99.90
